Time;durP1;ratioP1;P1;durP2;ratioP2;P2;SDS_P1;SDS_P2;PMS_P1;PMS_P2;Temp;Humidity;BMP_temperature;BMP_pressure;BME280_temperature;BME280_humidity;BME280_pressure;Samples;Min_cycle;Max_cycle;Signal;HPM_P1;HPM_P2
2021/09/16 00:01:47;;;;;;;15.97;14.27;;;19.40;99.90;;;;;;5068438;28;20312;-75
2021/09/16 00:04:13;;;;;;;15.80;14.33;;;19.40;99.90;;;;;;5068599;28;20245;-75
2021/09/16 00:06:40;;;;;;;14.83;13.53;;;19.40;99.90;;;;;;5068063;28;20766;-74
2021/09/16 00:09:08;;;;;;;14.70;13.40;;;19.40;99.90;;;;;;5068121;28;20662;-74
2021/09/16 00:11:35;;;;;;;14.77;13.40;;;19.40;99.90;;;;;;5068518;28;20218;-75
2021/09/16 00:14:01;;;;;;;14.37;12.97;;;19.40;99.90;;;;;;5067863;28;20739;-74
2021/09/16 00:16:28;;;;;;;14.90;13.60;;;19.40;99.90;;;;;;5068005;28;20602;-74
2021/09/16 00:18:54;;;;;;;14.87;13.63;;;19.40;99.90;;;;;;5068354;28;20207;-74
2021/09/16 00:21:21;;;;;;;16.53;14.20;;;19.40;99.90;;;;;;5067953;28;20235;-74
2021/09/16 00:23:48;;;;;;;15.27;13.77;;;19.40;99.90;;;;;;5068133;28;20249;-74
2021/09/16 00:26:16;;;;;;;14.53;13.10;;;19.40;99.90;;;;;;5068125;28;20211;-74
2021/09/16 00:28:42;;;;;;;13.33;11.90;;;19.40;99.90;;;;;;5068069;28;20199;-74
2021/09/16 00:31:09;;;;;;;13.30;12.00;;;19.30;99.90;;;;;;5068176;28;20276;-74
2021/09/16 00:33:35;;;;;;;12.97;11.77;;;19.40;99.90;;;;;;5068280;28;20203;-74
2021/09/16 00:36:02;;;;;;;13.23;11.93;;;19.30;99.90;;;;;;5068100;28;20207;-74
2021/09/16 00:38:29;;;;;;;13.37;12.13;;;19.30;99.90;;;;;;5068223;28;20207;-73
2021/09/16 00:40:55;;;;;;;13.73;12.33;;;19.30;99.90;;;;;;5067920;28;20288;-73
2021/09/16 00:43:24;;;;;;;13.67;12.37;;;19.30;99.90;;;;;;5068160;28;20558;-73
2021/09/16 00:45:50;;;;;;;13.57;12.27;;;19.30;99.90;;;;;;5067866;28;20207;-73
2021/09/16 00:48:17;;;;;;;14.30;13.10;;;19.30;99.90;;;;;;5068250;28;20269;-73
2021/09/16 00:50:43;;;;;;;13.07;11.97;;;19.30;99.90;;;;;;5067899;28;20211;-73
2021/09/16 00:53:10;;;;;;;14.10;12.80;;;19.20;99.90;;;;;;5068106;28;20272;-73
2021/09/16 00:55:39;;;;;;;14.07;11.83;;;19.30;99.90;;;;;;5067992;28;20207;-73
2021/09/16 00:58:07;;;;;;;12.63;11.53;;;19.30;99.90;;;;;;5067785;28;20223;-73
2021/09/16 01:00:36;;;;;;;13.10;12.00;;;19.30;99.90;;;;;;5067933;28;20297;-73
2021/09/16 01:03:03;;;;;;;13.47;12.33;;;19.20;99.90;;;;;;5067703;28;20316;-73
2021/09/16 01:05:29;;;;;;;14.17;12.23;;;19.30;99.90;;;;;;5067911;28;20253;-73
2021/09/16 01:07:59;;;;;;;14.20;12.77;;;19.30;99.90;;;;;;5067290;28;20772;-73
2021/09/16 01:10:26;;;;;;;12.97;11.83;;;19.30;99.90;;;;;;5067866;28;20196;-73
2021/09/16 01:12:52;;;;;;;13.50;12.30;;;19.20;99.90;;;;;;5067562;28;21108;-73
2021/09/16 01:15:19;;;;;;;13.30;12.20;;;19.20;99.90;;;;;;5067372;28;20265;-73
2021/09/16 01:17:47;;;;;;;14.57;13.17;;;19.20;99.90;;;;;;5067687;28;20279;-73
2021/09/16 01:20:14;;;;;;;14.10;12.70;;;19.10;99.90;;;;;;5067519;28;20287;-73
2021/09/16 01:22:42;;;;;;;13.53;12.37;;;19.10;99.90;;;;;;5067430;28;20208;-74
2021/09/16 01:25:10;;;;;;;14.23;12.40;;;19.10;99.90;;;;;;5066002;28;20203;-74
2021/09/16 01:27:36;;;;;;;15.40;13.80;;;19.10;99.90;;;;;;5068507;28;20224;-73
2021/09/16 01:30:05;;;;;;;13.57;12.27;;;19.00;99.90;;;;;;5070641;28;20662;-73
2021/09/16 01:32:32;;;;;;;13.27;12.17;;;19.10;99.90;;;;;;5071112;28;20665;-73
2021/09/16 01:34:58;;;;;;;13.73;12.43;;;19.00;99.90;;;;;;5070866;28;20227;-73
2021/09/16 01:37:25;;;;;;;13.70;12.30;;;19.00;99.90;;;;;;5071251;28;20257;-73
2021/09/16 01:39:53;;;;;;;13.33;12.13;;;19.00;99.90;;;;;;5070791;28;20750;-73
2021/09/16 01:42:19;;;;;;;13.90;12.60;;;18.90;99.90;;;;;;5070817;28;20266;-73
2021/09/16 01:44:47;;;;;;;13.57;12.37;;;18.90;99.90;;;;;;5070871;28;20207;-73
2021/09/16 01:47:14;;;;;;;14.73;12.97;;;18.90;99.90;;;;;;5070760;28;20211;-74
2021/09/16 01:49:41;;;;;;;14.47;13.03;;;18.90;99.90;;;;;;5070232;28;20257;-73
2021/09/16 01:52:07;;;;;;;14.47;13.07;;;18.90;99.90;;;;;;5070350;28;20207;-73
2021/09/16 01:54:34;;;;;;;13.97;12.73;;;18.90;99.90;;;;;;5070436;28;20264;-73
2021/09/16 01:57:02;;;;;;;15.97;13.77;;;18.90;99.90;;;;;;5070153;28;20232;-73
2021/09/16 01:59:29;;;;;;;15.90;14.30;;;18.90;99.90;;;;;;5070670;28;20223;-73
2021/09/16 02:01:55;;;;;;;14.97;13.47;;;18.90;99.90;;;;;;5070696;28;20263;-73
2021/09/16 02:04:22;;;;;;;14.77;13.27;;;18.90;99.90;;;;;;5070922;28;20574;-73
2021/09/16 02:06:48;;;;;;;14.43;13.13;;;18.80;99.90;;;;;;5070774;28;20274;-73
2021/09/16 02:09:15;;;;;;;14.07;12.67;;;18.90;99.90;;;;;;5070799;28;20204;-73
2021/09/16 02:11:42;;;;;;;15.90;14.33;;;18.90;99.90;;;;;;5070781;28;20273;-73
2021/09/16 02:14:10;;;;;;;15.27;13.77;;;18.90;99.90;;;;;;5070488;28;20652;-73
2021/09/16 02:16:36;;;;;;;15.17;13.77;;;18.80;99.90;;;;;;5070427;28;20207;-73
2021/09/16 02:19:04;;;;;;;14.93;13.43;;;18.90;99.90;;;;;;5069889;28;20613;-73
2021/09/16 02:21:31;;;;;;;15.60;13.40;;;18.90;99.90;;;;;;5069852;28;20606;-73
2021/09/16 02:23:58;;;;;;;14.87;13.40;;;18.80;99.90;;;;;;5068657;28;20211;-73
2021/09/16 02:26:24;;;;;;;14.60;13.27;;;18.80;99.90;;;;;;5068541;28;20670;-73
2021/09/16 02:28:51;;;;;;;17.73;14.07;;;18.80;99.90;;;;;;5068480;28;20219;-73
2021/09/16 02:31:19;;;;;;;15.97;14.20;;;18.80;99.90;;;;;;5068658;28;20208;-73
2021/09/16 02:33:46;;;;;;;15.70;14.13;;;18.80;99.90;;;;;;5068565;28;20273;-74
2021/09/16 02:36:12;;;;;;;16.43;14.27;;;18.80;99.90;;;;;;5068687;28;20261;-73
2021/09/16 02:38:39;;;;;;;18.37;15.13;;;18.80;99.90;;;;;;5069603;28;20207;-72
2021/09/16 02:41:06;;;;;;;16.70;14.57;;;18.80;99.90;;;;;;5069898;28;20234;-73
2021/09/16 02:43:33;;;;;;;16.83;15.13;;;18.90;99.90;;;;;;5069851;28;20219;-73
2021/09/16 02:45:59;;;;;;;15.40;13.90;;;18.90;99.90;;;;;;5069408;28;20207;-73
2021/09/16 02:48:27;;;;;;;16.73;15.10;;;18.90;99.90;;;;;;5069797;28;20260;-73
2021/09/16 02:50:54;;;;;;;15.60;13.97;;;18.80;99.90;;;;;;5069925;28;20211;-72
2021/09/16 02:53:21;;;;;;;15.93;14.23;;;18.80;99.90;;;;;;5069759;28;20204;-72
2021/09/16 02:55:47;;;;;;;17.23;15.03;;;18.90;99.90;;;;;;5069095;28;20227;-72
2021/09/16 02:58:14;;;;;;;17.93;14.33;;;18.90;99.90;;;;;;5069199;28;20633;-72
2021/09/16 03:00:41;;;;;;;15.53;13.90;;;19.00;99.90;;;;;;5069157;28;20277;-72
2021/09/16 03:03:08;;;;;;;16.67;15.07;;;19.00;99.90;;;;;;5069361;28;20211;-72
2021/09/16 03:05:36;;;;;;;16.87;15.27;;;19.00;99.90;;;;;;5069367;28;20320;-72
2021/09/16 03:08:03;;;;;;;16.80;15.07;;;19.00;99.90;;;;;;5068858;28;20239;-72
2021/09/16 03:10:30;;;;;;;17.57;15.77;;;19.00;99.90;;;;;;5069425;28;20265;-72
2021/09/16 03:12:56;;;;;;;18.77;15.63;;;18.90;99.90;;;;;;5068975;28;20215;-72
2021/09/16 03:15:23;;;;;;;15.63;13.97;;;18.90;99.90;;;;;;5069077;28;20257;-72
2021/09/16 03:17:50;;;;;;;19.00;17.07;;;18.90;99.90;;;;;;5068985;28;20207;-72
2021/09/16 03:20:17;;;;;;;18.63;16.73;;;18.90;99.90;;;;;;5069276;28;20207;-73
2021/09/16 03:22:45;;;;;;;18.77;15.70;;;18.80;99.90;;;;;;5068743;28;20752;-72
2021/09/16 03:25:12;;;;;;;17.53;15.80;;;18.90;99.90;;;;;;5069336;28;20284;-72
2021/09/16 03:27:39;;;;;;;18.43;16.73;;;18.90;99.90;;;;;;5068839;28;20669;-72
2021/09/16 03:30:08;;;;;;;19.97;16.80;;;18.90;99.90;;;;;;5069001;28;20644;-72
2021/09/16 03:32:36;;;;;;;20.10;18.10;;;18.80;99.90;;;;;;5069007;28;20204;-72
2021/09/16 03:35:04;;;;;;;22.60;20.07;;;18.80;99.90;;;;;;5068894;28;20227;-72
2021/09/16 03:37:30;;;;;;;23.63;19.47;;;18.70;99.90;;;;;;5068937;28;20234;-72
2021/09/16 03:39:58;;;;;;;25.80;20.33;;;18.60;99.90;;;;;;5068659;28;20260;-72
2021/09/16 03:42:26;;;;;;;26.10;21.40;;;18.60;99.90;;;;;;5068440;28;20280;-74
2021/09/16 03:44:53;;;;;;;26.17;22.13;;;18.60;99.90;;;;;;5068490;28;20207;-74
2021/09/16 03:47:19;;;;;;;26.53;22.83;;;18.50;99.90;;;;;;5068552;28;20203;-73
2021/09/16 03:49:46;;;;;;;29.37;22.63;;;18.50;99.90;;;;;;5068107;28;20214;-74
2021/09/16 03:52:13;;;;;;;31.60;22.40;;;18.50;99.90;;;;;;5068328;28;20208;-74
2021/09/16 03:54:39;;;;;;;28.97;23.80;;;18.40;99.90;;;;;;5068642;28;20257;-73
2021/09/16 03:57:07;;;;;;;31.60;24.60;;;18.50;99.90;;;;;;5068293;28;20252;-73
2021/09/16 03:59:36;;;;;;;30.90;24.33;;;18.50;99.90;;;;;;5068625;28;20280;-73
2021/09/16 04:02:03;;;;;;;30.03;24.23;;;18.50;99.90;;;;;;5068208;28;20219;-73
2021/09/16 04:04:30;;;;;;;31.80;24.37;;;18.50;99.90;;;;;;5068481;28;20203;-73
2021/09/16 04:06:56;;;;;;;30.73;24.87;;;18.60;99.90;;;;;;5068170;28;20254;-74
2021/09/16 04:09:24;;;;;;;30.10;25.20;;;18.50;99.90;;;;;;5068073;28;20673;-74
2021/09/16 04:11:51;;;;;;;28.47;25.17;;;18.40;99.90;;;;;;5068695;28;20272;-74
2021/09/16 04:14:19;;;;;;;30.50;25.67;;;18.40;99.90;;;;;;5068251;28;20207;-74
2021/09/16 04:16:45;;;;;;;29.07;24.53;;;18.40;99.90;;;;;;5068271;28;20237;-74
2021/09/16 04:19:12;;;;;;;27.97;24.40;;;18.40;99.90;;;;;;5068155;28;20560;-74
2021/09/16 04:21:39;;;;;;;28.87;23.83;;;18.40;99.90;;;;;;5068275;28;20238;-73
2021/09/16 04:24:06;;;;;;;28.10;21.60;;;18.40;99.90;;;;;;5067946;28;20814;-73
2021/09/16 04:26:33;;;;;;;22.53;18.03;;;18.40;99.90;;;;;;5068445;28;20315;-73
2021/09/16 04:29:01;;;;;;;19.93;17.80;;;18.30;99.90;;;;;;5068131;28;20211;-73
2021/09/16 04:31:29;;;;;;;20.30;18.13;;;18.30;99.90;;;;;;5068084;28;20256;-72
2021/09/16 04:33:56;;;;;;;19.30;17.27;;;18.40;99.90;;;;;;5067954;28;20223;-75
2021/09/16 04:36:23;;;;;;;20.20;17.70;;;18.30;99.90;;;;;;5068355;28;20249;-75
2021/09/16 04:38:49;;;;;;;19.43;17.20;;;18.30;99.90;;;;;;5068271;28;20261;-75
2021/09/16 04:41:16;;;;;;;20.03;17.33;;;18.40;99.90;;;;;;5068488;28;20211;-75
2021/09/16 04:43:42;;;;;;;20.10;18.13;;;18.30;99.90;;;;;;5068210;28;20627;-75
2021/09/16 04:46:09;;;;;;;19.43;17.43;;;18.30;99.90;;;;;;5068105;28;20684;-75
2021/09/16 04:48:37;;;;;;;19.37;17.43;;;18.30;99.90;;;;;;5068379;28;20211;-75
2021/09/16 04:51:04;;;;;;;19.33;17.33;;;18.20;99.90;;;;;;5067997;28;20199;-74
2021/09/16 04:53:30;;;;;;;18.53;16.63;;;18.20;99.90;;;;;;5067999;28;20620;-74
2021/09/16 04:55:57;;;;;;;19.60;16.67;;;18.20;99.90;;;;;;5068001;28;20281;-74
2021/09/16 04:58:24;;;;;;;18.10;16.20;;;18.10;99.90;;;;;;5067773;28;20232;-74
2021/09/16 05:00:50;;;;;;;16.47;14.40;;;18.10;99.90;;;;;;5068429;28;20256;-74
2021/09/16 05:03:17;;;;;;;15.40;13.80;;;18.10;99.90;;;;;;5071904;28;20231;-74
2021/09/16 05:05:45;;;;;;;15.13;12.97;;;18.10;99.90;;;;;;5071444;28;20211;-74
2021/09/16 05:08:13;;;;;;;16.00;14.10;;;18.10;99.90;;;;;;5071723;28;20195;-74
2021/09/16 05:10:40;;;;;;;15.77;13.37;;;18.10;99.90;;;;;;5071676;28;20214;-75
2021/09/16 05:13:06;;;;;;;15.17;13.63;;;18.10;99.90;;;;;;5071601;28;20207;-75
2021/09/16 05:15:33;;;;;;;15.43;13.83;;;18.20;99.90;;;;;;5071713;28;20207;-75
2021/09/16 05:18:00;;;;;;;14.50;13.00;;;18.10;99.90;;;;;;5071416;28;20238;-74
2021/09/16 05:20:26;;;;;;;17.50;15.60;;;18.10;99.90;;;;;;5071435;28;20207;-75
2021/09/16 05:22:54;;;;;;;16.50;14.90;;;18.10;99.90;;;;;;5071157;28;20227;-75
2021/09/16 05:25:21;;;;;;;17.77;14.57;;;18.10;99.90;;;;;;5071288;28;20211;-74
2021/09/16 05:27:47;;;;;;;15.47;13.97;;;18.00;99.90;;;;;;5071410;28;20203;-74
2021/09/16 05:30:15;;;;;;;15.57;13.83;;;18.00;99.90;;;;;;5071226;28;20265;-75
2021/09/16 05:32:42;;;;;;;15.87;13.67;;;18.00;99.90;;;;;;5071318;28;20621;-74
2021/09/16 05:35:09;;;;;;;16.40;12.97;;;17.90;99.90;;;;;;5071371;28;20211;-75
2021/09/16 05:37:36;;;;;;;13.87;12.47;;;17.90;99.90;;;;;;5071337;28;20203;-74
2021/09/16 05:40:06;;;;;;;14.77;13.03;;;17.90;99.90;;;;;;5071058;28;20211;-73
2021/09/16 05:42:32;;;;;;;11.73;10.53;;;17.90;99.90;;;;;;5071009;28;20234;-72
2021/09/16 05:44:59;;;;;;;11.63;10.63;;;17.80;99.90;;;;;;5070967;28;20203;-73
2021/09/16 05:47:26;;;;;;;10.80;9.80;;;17.80;99.90;;;;;;5071125;28;20218;-73
2021/09/16 05:49:52;;;;;;;12.37;9.67;;;17.80;99.90;;;;;;5070784;28;20669;-73
2021/09/16 05:52:19;;;;;;;10.17;9.17;;;17.70;99.90;;;;;;5071418;28;20204;-75
2021/09/16 05:54:46;;;;;;;11.03;8.67;;;17.70;99.90;;;;;;5070926;28;20257;-75
2021/09/16 05:57:13;;;;;;;9.67;8.67;;;17.70;99.90;;;;;;5071020;28;20210;-75
2021/09/16 05:59:40;;;;;;;9.27;8.20;;;17.60;99.90;;;;;;5070678;28;20786;-74
2021/09/16 06:02:07;;;;;;;9.40;8.40;;;17.60;99.90;;;;;;5070746;28;20219;-74
2021/09/16 06:04:34;;;;;;;9.67;8.27;;;17.70;99.90;;;;;;5070794;28;20265;-74
2021/09/16 06:07:03;;;;;;;8.27;7.07;;;17.60;99.90;;;;;;5070360;28;20239;-74
2021/09/16 06:09:30;;;;;;;8.70;7.87;;;17.70;99.90;;;;;;5070659;28;20211;-73
2021/09/16 06:11:59;;;;;;;9.37;7.50;;;17.70;99.90;;;;;;5069990;28;20203;-73
2021/09/16 06:14:27;;;;;;;8.40;7.50;;;17.70;99.90;;;;;;5069874;28;20207;-73
2021/09/16 06:16:54;;;;;;;9.13;8.23;;;17.80;99.90;;;;;;5070457;28;20204;-73
2021/09/16 06:19:20;;;;;;;10.23;9.33;;;17.80;99.90;;;;;;5070417;28;20237;-73
2021/09/16 06:21:47;;;;;;;8.47;7.83;;;17.80;99.90;;;;;;5070247;28;20285;-73
2021/09/16 06:24:13;;;;;;;8.47;7.33;;;17.80;99.90;;;;;;5069774;28;20723;-73
2021/09/16 06:26:40;;;;;;;9.33;8.40;;;17.70;99.90;;;;;;5070035;28;20665;-73
2021/09/16 06:29:07;;;;;;;16.47;14.03;;;17.70;99.90;;;;;;5070058;28;20215;-72
2021/09/16 06:31:35;;;;;;;11.17;9.20;;;17.70;99.90;;;;;;5070021;28;20281;-73
2021/09/16 06:34:01;;;;;;;11.87;8.47;;;17.70;99.90;;;;;;5069712;28;20263;-73
2021/09/16 06:36:28;;;;;;;8.70;7.90;;;17.70;99.90;;;;;;5069939;28;20211;-73
2021/09/16 06:38:54;;;;;;;9.33;7.27;;;17.60;99.90;;;;;;5069736;28;20285;-72
2021/09/16 06:41:21;;;;;;;7.57;6.87;;;17.70;99.90;;;;;;5069732;28;20203;-73
2021/09/16 06:43:48;;;;;;;10.40;8.20;;;17.70;99.90;;;;;;5069668;28;20320;-74
2021/09/16 06:46:15;;;;;;;9.07;7.77;;;17.70;99.90;;;;;;5069977;28;20260;-74
2021/09/16 06:48:43;;;;;;;8.20;7.50;;;17.60;99.90;;;;;;5069424;28;20215;-74
2021/09/16 06:51:09;;;;;;;7.77;6.97;;;17.70;99.90;;;;;;5069648;28;20219;-74
2021/09/16 06:53:36;;;;;;;7.70;6.73;;;17.70;99.90;;;;;;5069745;28;20205;-74
2021/09/16 06:56:03;;;;;;;7.97;6.90;;;17.70;99.90;;;;;;5069535;28;20235;-74
2021/09/16 06:58:30;;;;;;;7.60;6.80;;;17.70;99.90;;;;;;5069663;28;20235;-74
2021/09/16 07:00:57;;;;;;;9.17;7.03;;;17.80;99.90;;;;;;5069758;28;20260;-74
2021/09/16 07:03:23;;;;;;;6.30;5.67;;;17.80;99.90;;;;;;5069813;28;20227;-74
2021/09/16 07:05:51;;;;;;;6.40;5.53;;;17.80;99.90;;;;;;5069479;28;20209;-74
2021/09/16 07:08:18;;;;;;;7.33;6.03;;;17.90;99.90;;;;;;5069424;28;20227;-74
2021/09/16 07:10:44;;;;;;;6.23;5.67;;;17.90;99.90;;;;;;5069423;28;20328;-75
2021/09/16 07:13:11;;;;;;;8.57;5.40;;;17.80;99.90;;;;;;5069320;28;20681;-74
2021/09/16 07:15:38;;;;;;;5.90;5.40;;;17.80;99.90;;;;;;5069364;28;20257;-74
2021/09/16 07:18:04;;;;;;;5.37;4.87;;;17.80;99.90;;;;;;5069012;28;20558;-74
2021/09/16 07:20:31;;;;;;;5.53;5.03;;;17.80;99.90;;;;;;5069192;28;20211;-74
2021/09/16 07:22:59;;;;;;;5.50;5.00;;;17.80;99.90;;;;;;5069145;28;20235;-74
2021/09/16 07:25:25;;;;;;;5.47;4.87;;;17.80;99.90;;;;;;5067593;28;20203;-73
2021/09/16 07:27:52;;;;;;;4.90;4.40;;;17.90;99.90;;;;;;5066515;28;20203;-73
2021/09/16 07:30:19;;;;;;;5.17;4.73;;;17.90;99.90;;;;;;5068222;28;20211;-73
2021/09/16 07:32:45;;;;;;;6.50;4.60;;;17.90;99.90;;;;;;5068709;28;20211;-72
2021/09/16 07:35:12;;;;;;;6.27;4.37;;;18.00;99.90;;;;;;5068179;28;20265;-73
2021/09/16 07:37:39;;;;;;;4.60;4.20;;;18.10;99.90;;;;;;5068730;28;20292;-72
2021/09/16 07:40:08;;;;;;;5.07;4.27;;;18.00;99.90;;;;;;5068802;28;20257;-74
2021/09/16 07:42:35;;;;;;;5.40;3.97;;;18.00;99.90;;;;;;5068582;28;20228;-74
2021/09/16 07:45:02;;;;;;;4.10;3.70;;;18.00;99.90;;;;;;5068291;28;20235;-74
2021/09/16 07:47:28;;;;;;;4.77;3.57;;;18.00;99.90;;;;;;5053481;28;20208;-73
2021/09/16 07:49:55;;;;;;;4.27;3.77;;;18.10;99.90;;;;;;5064844;28;20561;-74
2021/09/16 07:52:22;;;;;;;4.80;3.50;;;18.10;99.90;;;;;;5064537;28;20750;-74
2021/09/16 07:54:48;;;;;;;4.00;3.70;;;18.20;99.90;;;;;;5064903;28;20259;-74
2021/09/16 07:57:16;;;;;;;3.93;3.63;;;18.20;99.90;;;;;;5064372;28;20207;-74
2021/09/16 07:59:43;;;;;;;6.20;3.20;;;18.20;99.90;;;;;;5064521;28;20264;-74
2021/09/16 08:02:10;;;;;;;4.60;3.50;;;18.20;99.90;;;;;;5065027;28;20207;-74
2021/09/16 08:04:36;;;;;;;3.27;2.97;;;18.10;99.90;;;;;;5064975;28;20284;-77
2021/09/16 08:07:03;;;;;;;7.53;3.10;;;18.20;99.90;;;;;;5064386;28;20290;-76
2021/09/16 08:09:30;;;;;;;3.67;2.47;;;18.20;99.90;;;;;;5064421;28;20206;-78
2021/09/16 08:11:56;;;;;;;2.37;2.17;;;18.20;99.90;;;;;;5064636;28;20292;-75
2021/09/16 08:14:24;;;;;;;2.80;2.57;;;18.10;99.90;;;;;;5064483;28;20211;-77
2021/09/16 08:16:51;;;;;;;2.80;2.60;;;18.10;99.90;;;;;;5064766;28;20264;-75
2021/09/16 08:19:17;;;;;;;2.77;2.43;;;18.10;99.90;;;;;;5064760;28;20948;-75
2021/09/16 08:21:44;;;;;;;2.70;2.57;;;18.10;99.90;;;;;;5064186;28;20207;-76
2021/09/16 08:24:11;;;;;;;2.83;2.27;;;18.10;99.90;;;;;;5064160;28;20271;-76
2021/09/16 08:26:38;;;;;;;2.63;2.40;;;17.90;99.90;;;;;;5065153;28;20234;-76
2021/09/16 08:29:04;;;;;;;2.67;2.47;;;17.90;99.90;;;;;;5064273;28;20216;-77
2021/09/16 08:31:33;;;;;;;2.17;1.93;;;18.00;99.90;;;;;;5064807;28;20211;-77
2021/09/16 08:33:59;;;;;;;3.80;2.30;;;18.10;99.90;;;;;;5063750;28;20308;-77
2021/09/16 08:36:26;;;;;;;3.97;2.27;;;18.00;99.90;;;;;;5066088;28;20249;-78
2021/09/16 08:38:53;;;;;;;2.43;2.23;;;18.10;99.90;;;;;;5068761;28;20218;-77
2021/09/16 08:41:20;;;;;;;3.40;2.43;;;18.10;99.90;;;;;;5068721;28;20574;-77
2021/09/16 08:43:48;;;;;;;3.37;2.13;;;18.10;99.90;;;;;;5068502;28;20231;-77
2021/09/16 08:46:15;;;;;;;1.90;1.80;;;18.10;99.90;;;;;;5068586;28;20211;-76
2021/09/16 08:48:44;;;;;;;2.60;1.83;;;18.00;99.90;;;;;;5068570;28;20260;-74
2021/09/16 08:51:12;;;;;;;1.87;1.77;;;18.00;99.90;;;;;;5068214;28;20243;-74
2021/09/16 08:53:40;;;;;;;1.60;1.50;;;18.10;99.90;;;;;;5068536;28;20207;-74
2021/09/16 08:56:07;;;;;;;2.77;1.60;;;18.20;99.90;;;;;;5068588;28;20219;-75
2021/09/16 08:58:34;;;;;;;1.83;1.43;;;18.20;99.90;;;;;;5067843;28;20238;-74
2021/09/16 09:01:02;;;;;;;2.77;1.47;;;18.30;99.90;;;;;;5068019;28;20497;-74
2021/09/16 09:03:29;;;;;;;1.30;1.17;;;18.20;99.90;;;;;;5067245;28;20835;-74
2021/09/16 09:05:57;;;;;;;2.03;1.10;;;18.10;99.90;;;;;;5065797;28;20222;-74
2021/09/16 09:08:25;;;;;;;1.00;1.00;;;18.00;99.90;;;;;;5071789;28;20191;-75
2021/09/16 09:10:53;;;;;;;2.50;0.93;;;17.90;99.90;;;;;;5070429;28;20270;-74
2021/09/16 09:13:23;;;;;;;0.93;0.90;;;17.80;99.90;;;;;;5069329;28;20262;-74
2021/09/16 09:15:59;;;;;;;1.17;0.87;;;17.80;99.90;;;;;;5071476;28;20285;-74
2021/09/16 09:18:26;;;;;;;2.53;1.03;;;17.70;99.90;;;;;;5071560;28;20195;-75
2021/09/16 09:21:03;;;;;;;2.97;0.90;;;17.70;99.90;;;;;;5070048;28;20207;-76
2021/09/16 09:23:34;;;;;;;3.83;1.27;;;17.70;99.90;;;;;;5070282;28;20227;-74
2021/09/16 09:26:19;;;;;;;1.87;0.80;;;17.70;99.90;;;;;;5068244;28;20698;-74
2021/09/16 09:28:46;;;;;;;2.30;1.10;;;17.70;99.90;;;;;;5067092;28;20219;-74
2021/09/16 09:31:15;;;;;;;2.40;1.00;;;17.80;99.90;;;;;;5068174;28;20215;-74
2021/09/16 09:33:42;;;;;;;0.90;0.80;;;17.90;99.90;;;;;;5068732;28;20250;-74
2021/09/16 09:36:13;;;;;;;1.30;0.70;;;18.10;99.90;;;;;;5068553;28;20207;-75
2021/09/16 09:39:01;;;;;;;5.87;1.00;;;18.20;99.90;;;;;;5069097;28;20276;-74
2021/09/16 09:41:33;;;;;;;1.90;0.90;;;18.20;99.90;;;;;;5068313;28;20650;-74
2021/09/16 09:44:12;;;;;;;1.70;0.80;;;18.10;99.90;;;;;;5068620;28;20312;-74
2021/09/16 09:46:44;;;;;;;2.83;0.70;;;18.20;99.90;;;;;;5068509;28;20204;-74
2021/09/16 09:49:13;;;;;;;1.20;0.90;;;18.20;99.90;;;;;;5067382;28;20277;-74
2021/09/16 09:51:43;;;;;;;1.07;0.70;;;18.20;99.90;;;;;;5068567;28;20210;-74
2021/09/16 09:54:28;;;;;;;3.47;0.83;;;18.30;99.90;;;;;;5068153;28;20284;-74
2021/09/16 09:57:00;;;;;;;0.67;0.60;;;18.30;99.90;;;;;;5062554;28;20756;-74
2021/09/16 09:59:29;;;;;;;1.67;0.60;;;18.30;99.90;;;;;;5067969;28;20211;-74
2021/09/16 10:02:03;;;;;;;1.00;0.70;;;18.30;99.90;;;;;;5067985;28;20211;-74
2021/09/16 10:04:31;;;;;;;1.07;0.60;;;18.30;99.90;;;;;;5067669;28;20235;-74
2021/09/16 10:07:00;;;;;;;0.50;0.40;;;18.30;99.90;;;;;;5067000;28;20784;-74
2021/09/16 10:09:27;;;;;;;2.50;0.60;;;18.30;99.90;;;;;;5067405;28;20203;-74
2021/09/16 10:11:57;;;;;;;0.60;0.60;;;18.40;99.90;;;;;;5067386;28;20662;-74
2021/09/16 10:14:24;;;;;;;0.87;0.50;;;18.50;99.90;;;;;;5067488;28;20203;-74
2021/09/16 10:16:50;;;;;;;1.90;0.80;;;18.50;99.90;;;;;;5067554;28;20216;-74
2021/09/16 10:19:17;;;;;;;1.97;0.97;;;18.40;99.90;;;;;;5067632;28;20243;-74
2021/09/16 10:21:44;;;;;;;0.67;0.67;;;18.40;99.90;;;;;;5067244;28;20208;-74
2021/09/16 10:24:17;;;;;;;2.20;1.00;;;18.50;99.90;;;;;;5067354;28;20239;-74
2021/09/16 10:26:47;;;;;;;1.60;0.50;;;18.60;99.90;;;;;;5067576;28;20191;-74
2021/09/16 10:29:32;;;;;;;1.13;0.70;;;18.50;99.90;;;;;;5067355;28;20211;-74
2021/09/16 10:32:32;;;;;;;0.97;0.60;;;18.60;99.90;;;;;;5067228;28;20241;-74
2021/09/16 10:34:59;;;;;;;3.27;0.63;;;18.50;99.90;;;;;;5067416;28;20257;-74
2021/09/16 10:37:35;;;;;;;0.70;0.70;;;18.40;99.90;;;;;;5067070;28;20214;-75
2021/09/16 10:40:23;;;;;;;0.70;0.50;;;18.30;99.90;;;;;;5047136;28;20713;-75
2021/09/16 10:42:52;;;;;;;1.10;0.60;;;18.30;99.90;;;;;;5047338;28;20196;-74
2021/09/16 10:45:28;;;;;;;4.77;0.90;;;18.20;99.90;;;;;;5047099;28;20231;-74
2021/09/16 10:48:33;;;;;;;1.57;0.70;;;18.30;99.90;;;;;;5047328;28;20208;-75
2021/09/16 10:51:04;;;;;;;1.10;0.60;;;18.20;99.90;;;;;;5047709;28;20227;-74
2021/09/16 10:53:41;;;;;;;2.40;0.87;;;18.10;99.90;;;;;;5047464;28;20204;-74
2021/09/16 10:59:01;;;;;;;1.17;0.83;;;18.30;99.90;;;;;;5145433;27;20608;-73
2021/09/16 11:01:59;;;;;;;0.53;0.53;;;18.50;99.90;;;;;;5144460;27;20671;-73
2021/09/16 11:04:27;;;;;;;0.80;0.70;;;18.50;99.90;;;;;;5104964;27;20204;-73
2021/09/16 11:06:53;;;;;;;1.83;0.80;;;18.50;99.90;;;;;;5120787;28;20209;-73
2021/09/16 11:09:28;;;;;;;3.00;1.00;;;18.50;99.90;;;;;;5123533;28;20552;-73
2021/09/16 11:12:00;;;;;;;1.60;0.77;;;18.50;99.90;;;;;;5123494;28;20823;-73
2021/09/16 11:14:32;;;;;;;1.43;0.40;;;18.40;99.90;;;;;;5123464;28;20197;-73
2021/09/16 11:16:59;;;;;;;0.83;0.60;;;18.40;99.90;;;;;;5122697;28;20722;-73
2021/09/16 11:19:26;;;;;;;1.23;0.50;;;18.30;99.90;;;;;;5123102;28;20734;-74
2021/09/16 11:22:02;;;;;;;0.63;0.40;;;18.30;99.90;;;;;;5123202;28;20687;-73
2021/09/16 11:24:34;;;;;;;1.07;0.60;;;18.20;99.90;;;;;;5123109;28;20209;-73
2021/09/16 11:27:01;;;;;;;0.37;0.30;;;18.20;99.90;;;;;;5123041;27;20241;-73
2021/09/16 11:29:39;;;;;;;2.43;0.53;;;18.10;99.90;;;;;;5123060;27;20209;-74
2021/09/16 11:32:06;;;;;;;3.03;0.90;;;17.90;99.90;;;;;;5122982;28;20221;-73
2021/09/16 11:34:32;;;;;;;0.97;0.60;;;18.00;99.90;;;;;;5123257;27;20241;-73
2021/09/16 11:37:29;;;;;;;0.73;0.63;;;18.00;99.90;;;;;;5122879;27;20206;-73
2021/09/16 11:40:03;;;;;;;2.63;0.70;;;18.10;99.90;;;;;;5123346;27;20227;-73
2021/09/16 11:42:31;;;;;;;4.60;0.93;;;18.20;99.90;;;;;;5123195;28;20250;-74
2021/09/16 11:45:16;;;;;;;0.87;0.50;;;18.30;99.90;;;;;;5123009;27;20294;-74
2021/09/16 11:47:48;;;;;;;1.40;0.60;;;18.30;99.90;;;;;;5122853;28;20206;-73
2021/09/16 11:50:33;;;;;;;1.07;0.60;;;18.30;99.90;;;;;;5123257;27;20663;-73
2021/09/16 11:53:03;;;;;;;0.83;0.50;;;18.40;99.90;;;;;;5122696;28;20652;-73
2021/09/16 11:55:31;;;;;;;0.80;0.47;;;18.50;99.90;;;;;;5122657;28;20306;-73
2021/09/16 11:58:07;;;;;;;0.73;0.47;;;18.60;99.90;;;;;;5130628;27;20313;-73
2021/09/16 12:00:39;;;;;;;0.60;0.60;;;18.50;99.90;;;;;;5142182;27;20236;-74
2021/09/16 12:03:07;;;;;;;0.63;0.40;;;18.60;99.90;;;;;;5142931;27;20246;-74
2021/09/16 12:05:45;;;;;;;0.40;0.33;;;18.60;99.90;;;;;;5142761;27;20212;-74
2021/09/16 12:08:17;;;;;;;2.43;0.80;;;18.70;99.90;;;;;;5142252;27;20192;-74
2021/09/16 12:10:47;;;;;;;0.80;0.57;;;18.80;99.90;;;;;;5129145;27;20193;-72
2021/09/16 12:13:16;;;;;;;1.33;0.63;;;18.70;99.90;;;;;;5129260;27;20201;-72
2021/09/16 12:15:46;;;;;;;1.93;0.43;;;18.70;99.90;;;;;;5128862;27;20667;-74
2021/09/16 12:18:13;;;;;;;0.77;0.40;;;18.80;99.90;;;;;;5128850;27;20244;-72
2021/09/16 12:20:41;;;;;;;1.60;0.47;;;18.80;99.90;;;;;;5129528;27;20254;-72
2021/09/16 12:23:12;;;;;;;0.77;0.40;;;18.90;99.90;;;;;;5122919;27;20247;-74
2021/09/16 12:26:00;;;;;;;1.63;0.60;;;19.00;99.90;;;;;;5129022;27;20194;-74
2021/09/16 12:28:28;;;;;;;1.60;0.57;;;19.00;99.90;;;;;;5126211;27;20258;-73
2021/09/16 12:31:05;;;;;;;0.53;0.40;;;19.10;99.90;;;;;;5128973;27;20201;-73
2021/09/16 12:33:40;;;;;;;0.53;0.40;;;19.10;99.90;;;;;;5125927;27;20222;-73
2021/09/16 12:36:19;;;;;;;1.10;0.50;;;18.90;99.90;;;;;;5140356;27;20200;-73
2021/09/16 12:38:48;;;;;;;0.50;0.40;;;18.90;99.90;;;;;;5127709;27;20789;-73
2021/09/16 12:41:33;;;;;;;0.30;0.30;;;18.90;99.90;;;;;;5128182;27;20214;-73
2021/09/16 12:44:03;;;;;;;1.73;0.37;;;19.00;99.90;;;;;;5128127;27;20312;-73
2021/09/16 12:46:43;;;;;;;2.20;0.40;;;19.00;99.90;;;;;;5128490;27;20205;-73
2021/09/16 12:49:25;;;;;;;0.63;0.50;;;19.30;99.90;;;;;;5128508;27;20197;-72